createdAt,value
2017-09-09T00:00:24.086Z,22.48
2017-09-09T00:01:33.419Z,22.5
2017-09-09T00:02:42.436Z,22.44
2017-09-09T00:03:51.450Z,22.44
2017-09-09T00:05:01.112Z,22.47
2017-09-09T00:06:10.122Z,22.44
2017-09-09T00:07:19.139Z,22.5
2017-09-09T00:08:28.794Z,22.44
2017-09-09T00:09:37.489Z,22.47
2017-09-09T00:10:46.824Z,22.41
2017-09-09T00:11:56.477Z,22.43
2017-09-09T00:13:05.815Z,22.48
2017-09-09T00:14:15.468Z,22.45
2017-09-09T00:15:24.811Z,22.48
2017-09-09T00:16:33.829Z,22.39
2017-09-09T00:17:43.491Z,22.41
2017-09-09T00:18:52.187Z,22.41
2017-09-09T00:20:01.204Z,22.43
2017-09-09T00:21:10.538Z,22.38
2017-09-09T00:22:19.553Z,22.39
2017-09-09T00:23:28.248Z,22.39
2017-09-09T00:24:37.267Z,22.43
2017-09-09T00:25:46.294Z,22.38
2017-09-09T00:26:55.667Z,22.44
2017-09-09T00:28:04.683Z,22.47
2017-09-09T00:29:13.698Z,22.36
2017-09-09T00:30:22.394Z,22.47
2017-09-09T00:31:31.409Z,22.35
2017-09-09T00:32:40.743Z,22.36
2017-09-09T00:33:49.759Z,22.36
2017-09-09T00:34:58.772Z,22.39
2017-09-09T00:36:08.107Z,22.36
2017-09-09T00:37:16.804Z,22.43
2017-09-09T00:38:25.819Z,22.36
2017-09-09T00:39:34.835Z,22.36
2017-09-09T00:40:43.851Z,22.32
2017-09-09T00:41:52.865Z,22.41
2017-09-09T00:43:02.201Z,22.43
2017-09-09T00:44:10.930Z,22.33
2017-09-09T00:45:21.228Z,22.35
2017-09-09T00:46:30.566Z,22.39
2017-09-09T00:47:39.579Z,22.41
2017-09-09T00:48:48.924Z,22.32
2017-09-09T00:49:57.618Z,22.41
2017-09-09T00:51:06.637Z,22.43
2017-09-09T00:52:15.656Z,22.39
2017-09-09T00:53:24.673Z,22.39
2017-09-09T00:54:34.009Z,22.41
2017-09-09T00:55:43.665Z,22.38
2017-09-09T00:56:52.363Z,22.39
2017-09-09T00:58:01.380Z,22.38
2017-09-09T00:59:10.394Z,22.38
2017-09-09T01:00:20.051Z,22.38
2017-09-09T01:01:29.383Z,22.36
2017-09-09T01:02:38.394Z,22.32
2017-09-09T01:03:47.731Z,22.3
2017-09-09T01:04:57.065Z,22.39
2017-09-09T01:06:06.081Z,22.35
2017-09-09T01:07:15.094Z,22.44
2017-09-09T01:08:23.789Z,22.29
2017-09-09T01:09:33.124Z,22.44
2017-09-09T01:10:42.780Z,22.39
2017-09-09T01:11:52.116Z,22.44
2017-09-09T01:13:00.811Z,22.33
2017-09-09T01:14:10.143Z,22.39
2017-09-09T01:15:18.839Z,22.38
2017-09-09T01:16:27.854Z,22.44
2017-09-09T01:17:37.190Z,22.41
2017-09-09T01:18:47.163Z,22.26
2017-09-09T01:19:55.859Z,22.35
2017-09-09T01:21:04.872Z,22.29
2017-09-09T01:22:14.208Z,22.3
2017-09-09T01:23:23.545Z,22.33
2017-09-09T01:24:32.878Z,22.26
2017-09-09T01:25:41.895Z,22.35
2017-09-09T01:26:50.908Z,22.32
2017-09-09T01:27:59.605Z,22.3
2017-09-09T01:29:08.299Z,22.36
2017-09-09T01:30:17.315Z,22.29
2017-09-09T01:31:26.966Z,22.33
2017-09-09T01:32:36.302Z,22.3
2017-09-09T01:33:44.995Z,22.32
2017-09-09T01:34:54.009Z,22.38
2017-09-09T01:36:03.345Z,22.36
2017-09-09T01:37:12.358Z,22.28
2017-09-09T01:38:22.011Z,22.28
2017-09-09T01:39:31.024Z,22.3
2017-09-09T01:40:39.725Z,22.33
2017-09-09T01:41:49.057Z,22.28
2017-09-09T01:42:58.071Z,22.3
2017-09-09T01:44:07.406Z,22.26
2017-09-09T01:45:16.747Z,22.28
2017-09-09T01:46:25.434Z,22.3
2017-09-09T01:47:35.084Z,22.29
2017-09-09T01:48:44.102Z,22.32
2017-09-09T01:49:52.797Z,22.36
2017-09-09T01:51:01.815Z,22.41
2017-09-09T01:52:10.829Z,22.3
2017-09-09T01:53:19.524Z,22.29
2017-09-09T01:54:28.861Z,22.33
2017-09-09T01:55:37.556Z,22.28
2017-09-09T01:56:46.891Z,22.26
2017-09-09T01:57:56.227Z,22.29
2017-09-09T01:59:04.923Z,22.26
2017-09-09T02:00:14.572Z,22.26
2017-09-09T02:01:23.268Z,22.29
2017-09-09T02:02:31.965Z,22.28
2017-09-09T02:03:40.663Z,22.3
2017-09-09T02:04:49.680Z,22.26
2017-09-09T02:05:59.014Z,22.23
2017-09-09T02:07:08.346Z,22.26
2017-09-09T02:08:17.367Z,22.28
2017-09-09T02:09:26.700Z,22.2
2017-09-09T02:10:35.715Z,22.3
2017-09-09T02:11:44.411Z,22.26
2017-09-09T02:12:53.426Z,22.26
2017-09-09T02:14:02.441Z,22.38
2017-09-09T02:15:11.454Z,22.25
2017-09-09T02:16:20.474Z,22.3
2017-09-09T02:17:29.492Z,22.25
2017-09-09T02:18:38.186Z,22.23
2017-09-09T02:19:47.205Z,22.26
2017-09-09T02:20:56.217Z,22.29
2017-09-09T02:22:05.565Z,22.26
2017-09-09T02:23:14.902Z,22.29
2017-09-09T02:24:23.596Z,22.25
2017-09-09T02:25:32.930Z,22.26
2017-09-09T02:26:42.265Z,22.25
2017-09-09T02:27:51.595Z,22.25
2017-09-09T02:29:00.293Z,22.25
2017-09-09T02:30:09.314Z,22.28
2017-09-09T02:31:18.990Z,22.25
2017-09-09T02:32:28.330Z,22.28
2017-09-09T02:33:37.350Z,22.25
2017-09-09T02:34:47.007Z,22.23
2017-09-09T02:35:55.702Z,22.22
2017-09-09T02:37:05.357Z,22.23
2017-09-09T02:38:15.334Z,22.26
2017-09-09T02:39:24.349Z,22.25
2017-09-09T02:40:33.687Z,22.22
2017-09-09T02:41:42.704Z,22.25
2017-09-09T02:42:52.042Z,22.23
2017-09-09T02:44:01.397Z,22.2
2017-09-09T02:45:10.415Z,22.26
2017-09-09T02:46:19.422Z,22.2
2017-09-09T02:47:28.120Z,22.28
2017-09-09T02:48:37.137Z,22.22
2017-09-09T02:49:46.471Z,22.23
2017-09-09T02:50:55.807Z,22.2
2017-09-09T02:52:05.471Z,22.2
2017-09-09T02:53:15.126Z,22.25
2017-09-09T02:54:24.460Z,22.17
2017-09-09T02:55:33.796Z,22.23
2017-09-09T02:56:42.812Z,22.18
2017-09-09T02:57:52.473Z,22.25
2017-09-09T02:59:01.806Z,22.13
2017-09-09T03:00:10.822Z,22.25
2017-09-09T03:01:20.485Z,22.2
2017-09-09T03:02:30.142Z,22.17
2017-09-09T03:03:39.797Z,22.26
2017-09-09T03:04:49.140Z,22.15
2017-09-09T03:05:58.485Z,22.13
2017-09-09T03:07:07.499Z,22.2
2017-09-09T03:08:16.834Z,22.29
2017-09-09T03:09:25.848Z,22.22
2017-09-09T03:10:34.865Z,22.2
2017-09-09T03:11:43.561Z,22.13
2017-09-09T03:12:53.219Z,22.17
2017-09-09T03:14:01.912Z,22.23
2017-09-09T03:15:10.609Z,22.2
2017-09-09T03:16:19.302Z,22.2
2017-09-09T03:17:28.322Z,22.15
2017-09-09T03:18:37.019Z,22.23
2017-09-09T03:19:46.670Z,22.14
2017-09-09T03:20:55.686Z,22.23
2017-09-09T03:22:05.025Z,22.15
2017-09-09T03:23:14.043Z,22.23
2017-09-09T03:24:23.060Z,22.14
2017-09-09T03:25:32.404Z,22.18
2017-09-09T03:26:41.739Z,22.28
2017-09-09T03:27:50.756Z,22.14
2017-09-09T03:28:59.772Z,22.2
2017-09-09T03:30:08.794Z,22.14
2017-09-09T03:31:18.131Z,22.18
2017-09-09T03:32:27.146Z,22.15
2017-09-09T03:33:36.797Z,22.14
2017-09-09T03:34:45.494Z,22.25
2017-09-09T03:35:54.189Z,22.22
2017-09-09T03:37:03.843Z,22.18
2017-09-09T03:38:13.177Z,22.23
2017-09-09T03:39:22.512Z,22.22
2017-09-09T03:40:32.174Z,22.18
2017-09-09T03:41:42.146Z,22.18
2017-09-09T03:42:51.162Z,22.25
2017-09-09T03:44:00.493Z,22.23
2017-09-09T03:45:10.158Z,22.11
2017-09-09T03:46:19.495Z,22.11
2017-09-09T03:47:28.509Z,22.13
2017-09-09T03:48:37.205Z,22.17
2017-09-09T03:49:45.901Z,22.25
2017-09-09T03:50:54.916Z,22.22
2017-09-09T03:52:03.937Z,22.25
2017-09-09T03:53:12.635Z,22.17
2017-09-09T03:54:21.968Z,22.11
2017-09-09T03:55:31.627Z,22.2
2017-09-09T03:56:40.640Z,22.2
2017-09-09T03:57:49.335Z,22.2
2017-09-09T03:58:58.353Z,22.17
2017-09-09T04:00:07.688Z,22.17
2017-09-09T04:01:16.705Z,22.22
2017-09-09T04:02:26.041Z,22.17
2017-09-09T04:03:36.021Z,22.23
2017-09-09T04:04:45.035Z,22.17
2017-09-09T04:05:55.010Z,22.18
2017-09-09T04:07:04.346Z,22.08
2017-09-09T04:08:13.366Z,22.18
2017-09-09T04:09:22.708Z,22.2
2017-09-09T04:10:31.723Z,22.17
2017-09-09T04:11:40.738Z,22.2
2017-09-09T04:12:50.396Z,22.17
2017-09-09T04:13:59.417Z,22.17
2017-09-09T04:15:08.431Z,22.15
2017-09-09T04:16:17.124Z,22.13
2017-09-09T04:17:26.142Z,22.18
2017-09-09T04:18:35.160Z,22.15
2017-09-09T04:19:43.856Z,22.17
2017-09-09T04:20:52.551Z,22.17
2017-09-09T04:22:01.250Z,22.2
2017-09-09T04:23:10.267Z,22.18
2017-09-09T04:24:19.603Z,22.17
2017-09-09T04:25:28.622Z,22.18
2017-09-09T04:26:37.961Z,22.17
2017-09-09T04:27:46.978Z,22.17
2017-09-09T04:28:55.673Z,22.17
2017-09-09T04:30:04.689Z,22.23
2017-09-09T04:31:13.705Z,22.17
2017-09-09T04:32:22.719Z,22.22
2017-09-09T04:33:31.734Z,22.15
2017-09-09T04:34:40.761Z,22.28
2017-09-09T04:35:50.096Z,22.25
2017-09-09T04:36:59.434Z,22.22
2017-09-09T04:38:08.770Z,22.25
2017-09-09T04:39:18.429Z,22.2
2017-09-09T04:40:27.764Z,22.15
2017-09-09T04:41:36.462Z,22.28
2017-09-09T04:42:45.482Z,22.2
2017-09-09T04:43:54.176Z,22.17
2017-09-09T04:45:03.507Z,22.15
2017-09-09T04:46:12.524Z,22.18
2017-09-09T04:47:22.501Z,22.18
2017-09-09T04:48:31.520Z,22.18
2017-09-09T04:49:40.887Z,22.14
2017-09-09T04:50:49.548Z,22.2
2017-09-09T04:51:58.882Z,22.28
2017-09-09T04:53:08.539Z,22.28
2017-09-09T04:54:17.554Z,22.22
2017-09-09T04:55:26.895Z,22.25
2017-09-09T04:56:35.911Z,22.28
2017-09-09T04:57:45.251Z,22.28
2017-09-09T04:58:54.268Z,22.28
2017-09-09T05:00:02.965Z,22.26
2017-09-09T05:01:11.980Z,22.28
2017-09-09T05:02:20.993Z,22.25
2017-09-09T05:03:29.691Z,22.25
2017-09-09T05:04:38.387Z,22.2
2017-09-09T05:05:47.402Z,22.29
2017-09-09T05:06:56.419Z,22.2
2017-09-09T05:08:05.754Z,22.29
2017-09-09T05:09:14.453Z,22.32
2017-09-09T05:10:23.501Z,22.33
2017-09-09T05:11:32.515Z,22.26
2017-09-09T05:12:42.165Z,22.3
2017-09-09T05:13:51.818Z,22.28
2017-09-09T05:15:01.482Z,22.28
2017-09-09T05:16:10.177Z,22.32
2017-09-09T05:17:19.512Z,22.36
2017-09-09T05:18:28.848Z,22.28
2017-09-09T05:19:37.555Z,22.32
2017-09-09T05:20:46.237Z,22.29
2017-09-09T05:21:55.573Z,22.28
2017-09-09T05:23:04.586Z,22.33
2017-09-09T05:24:13.603Z,22.3
2017-09-09T05:25:22.621Z,22.35
2017-09-09T05:26:32.597Z,22.41
2017-09-09T05:27:42.251Z,22.39
2017-09-09T05:28:51.265Z,22.44
2017-09-09T05:30:00.919Z,22.44
2017-09-09T05:31:09.934Z,22.41
2017-09-09T05:32:19.588Z,22.36
2017-09-09T05:33:29.248Z,22.41
2017-09-09T05:34:38.264Z,22.41
2017-09-09T05:35:47.281Z,22.41
2017-09-09T05:36:55.975Z,22.41
2017-09-09T05:38:05.311Z,22.39
2017-09-09T05:39:14.328Z,22.36
2017-09-09T05:40:23.340Z,22.38
2017-09-09T05:41:32.676Z,22.38
2017-09-09T05:42:42.008Z,22.39
2017-09-09T05:43:51.979Z,22.39
2017-09-09T05:45:00.997Z,22.36
2017-09-09T05:46:10.335Z,22.39
2017-09-09T05:47:19.351Z,22.33
2017-09-09T05:48:28.366Z,22.38
2017-09-09T05:49:38.017Z,22.39
2017-09-09T05:50:46.711Z,22.36
2017-09-09T05:51:55.727Z,22.38
2017-09-09T05:53:05.379Z,22.44
2017-09-09T05:54:14.397Z,22.41
2017-09-09T05:55:23.732Z,22.39
2017-09-09T05:56:32.748Z,22.33
2017-09-09T05:57:41.762Z,22.45
2017-09-09T05:58:50.777Z,22.38
2017-09-09T06:00:00.433Z,22.36
2017-09-09T06:01:09.796Z,22.41
2017-09-09T06:02:19.431Z,22.43
2017-09-09T06:03:29.103Z,22.41
2017-09-09T06:04:38.438Z,22.44
2017-09-09T06:05:48.092Z,22.39
2017-09-09T06:06:56.787Z,22.41
2017-09-09T06:08:05.483Z,22.41
2017-09-09T06:09:14.831Z,22.39
2017-09-09T06:10:24.172Z,22.39
2017-09-09T06:11:33.190Z,22.38
2017-09-09T06:12:42.204Z,22.43
2017-09-09T06:13:51.541Z,22.39
2017-09-09T06:15:00.555Z,22.39
2017-09-09T06:16:09.893Z,22.41
2017-09-09T06:17:18.905Z,22.45
2017-09-09T06:18:28.246Z,22.41
2017-09-09T06:19:37.906Z,22.39
2017-09-09T06:20:47.242Z,22.41
2017-09-09T06:21:55.937Z,22.44
2017-09-09T06:23:05.931Z,22.41
2017-09-09T06:24:15.275Z,22.39
2017-09-09T06:25:23.970Z,22.41
2017-09-09T06:26:33.304Z,22.45
2017-09-09T06:27:42.320Z,22.43
2017-09-09T06:28:51.333Z,22.48
2017-09-09T06:30:00.348Z,22.44
2017-09-09T06:31:09.363Z,22.45
2017-09-09T06:32:18.384Z,22.41
2017-09-09T06:33:28.044Z,22.45
2017-09-09T06:34:37.378Z,22.43
2017-09-09T06:35:46.394Z,22.45
2017-09-09T06:36:55.411Z,22.45
2017-09-09T06:38:04.426Z,22.48
2017-09-09T06:39:14.079Z,22.44
2017-09-09T06:40:23.413Z,22.44
2017-09-09T06:41:32.427Z,22.45
2017-09-09T06:42:41.762Z,22.47
2017-09-09T06:43:50.460Z,22.44
2017-09-09T06:44:59.475Z,22.5
2017-09-09T06:46:08.493Z,22.44
2017-09-09T06:47:17.511Z,22.48
2017-09-09T06:48:26.845Z,22.5
2017-09-09T06:49:36.176Z,22.51
2017-09-09T06:50:44.876Z,22.43
2017-09-09T06:51:54.533Z,22.53
2017-09-09T06:53:03.871Z,22.48
2017-09-09T06:54:12.567Z,22.55
2017-09-09T06:55:21.578Z,22.54
2017-09-09T06:56:31.229Z,22.54
2017-09-09T06:57:40.246Z,22.48
2017-09-09T06:58:49.261Z,22.5
2017-09-09T06:59:58.276Z,22.54
2017-09-09T07:01:07.292Z,22.54
2017-09-09T07:02:16.957Z,22.55
2017-09-09T07:03:25.682Z,22.55
2017-09-09T07:04:34.672Z,22.54
2017-09-09T07:05:43.367Z,22.6
2017-09-09T07:06:52.702Z,22.54
2017-09-09T07:08:01.719Z,22.5
2017-09-09T07:09:10.734Z,22.55
2017-09-09T07:10:20.072Z,22.54
2017-09-09T07:11:28.769Z,22.57
2017-09-09T07:12:38.105Z,22.55
2017-09-09T07:13:47.123Z,22.54
2017-09-09T07:14:56.460Z,22.6
2017-09-09T07:16:05.796Z,22.59
2017-09-09T07:17:14.492Z,22.65
2017-09-09T07:18:23.827Z,22.62
2017-09-09T07:19:33.485Z,22.68
2017-09-09T07:20:42.500Z,22.66
2017-09-09T07:21:52.154Z,22.69
2017-09-09T07:23:01.486Z,22.66
2017-09-09T07:24:10.499Z,22.63
2017-09-09T07:25:19.514Z,22.62
2017-09-09T07:26:29.169Z,22.75
2017-09-09T07:27:37.865Z,22.78
2017-09-09T07:28:47.199Z,22.7
2017-09-09T07:29:56.220Z,22.66
2017-09-09T07:31:04.916Z,22.7
2017-09-09T07:32:13.937Z,22.7
2017-09-09T07:33:23.271Z,22.83
2017-09-09T07:34:32.612Z,22.8
2017-09-09T07:35:41.630Z,22.87
2017-09-09T07:36:50.325Z,22.78
2017-09-09T07:37:59.664Z,22.8
2017-09-09T07:39:08.682Z,22.91
2017-09-09T07:40:18.345Z,22.9
2017-09-09T07:41:27.361Z,22.9
2017-09-09T07:42:36.058Z,22.91
2017-09-09T07:43:45.718Z,22.96
2017-09-09T07:44:55.052Z,23.02
2017-09-09T07:46:04.391Z,22.96
2017-09-09T07:47:13.724Z,22.98
2017-09-09T07:48:23.059Z,22.9
2017-09-09T07:49:31.753Z,22.99
2017-09-09T07:50:40.448Z,22.9
2017-09-09T07:51:49.144Z,22.8
2017-09-09T07:52:58.159Z,22.85
2017-09-09T07:54:07.491Z,22.78
2017-09-09T07:55:16.830Z,22.8
2017-09-09T07:56:26.168Z,22.88
2017-09-09T07:57:35.190Z,22.78
2017-09-09T07:58:44.528Z,22.78
2017-09-09T07:59:53.545Z,22.8
2017-09-09T08:01:02.558Z,22.8
2017-09-09T08:02:11.256Z,22.69
2017-09-09T08:03:20.915Z,22.73
2017-09-09T08:04:30.578Z,22.72
2017-09-09T08:05:39.599Z,22.78
2017-09-09T08:06:48.611Z,22.7
2017-09-09T08:07:57.308Z,22.72
2017-09-09T08:09:06.326Z,22.7
2017-09-09T08:10:15.339Z,22.68
2017-09-09T08:11:24.352Z,22.7
2017-09-09T08:12:33.369Z,22.66
2017-09-09T08:13:42.063Z,22.66
2017-09-09T08:14:52.046Z,22.73
2017-09-09T08:16:00.738Z,22.7
2017-09-09T08:17:09.755Z,22.7
2017-09-09T08:18:19.102Z,22.83
2017-09-09T08:19:28.119Z,22.84
2017-09-09T08:20:37.140Z,22.84
2017-09-09T08:21:46.795Z,22.91
2017-09-09T08:22:55.808Z,22.9
2017-09-09T08:24:05.153Z,22.96
2017-09-09T08:25:13.851Z,22.94
2017-09-09T08:26:22.869Z,22.98
2017-09-09T08:27:32.528Z,22.93
2017-09-09T08:28:42.179Z,23
2017-09-09T08:29:50.877Z,23.02
2017-09-09T08:31:00.211Z,23.02
2017-09-09T08:32:08.908Z,23.06
2017-09-09T08:33:18.241Z,23
2017-09-09T08:34:26.935Z,23
2017-09-09T08:35:36.271Z,22.99
2017-09-09T08:36:45.609Z,22.88
2017-09-09T08:37:54.624Z,22.99
2017-09-09T08:39:03.638Z,22.94
2017-09-09T08:40:12.972Z,22.98
2017-09-09T08:41:21.992Z,22.96
2017-09-09T08:42:31.330Z,22.94
2017-09-09T08:43:40.027Z,22.94
2017-09-09T08:44:49.682Z,22.91
2017-09-09T08:45:58.707Z,22.94
2017-09-09T08:47:07.723Z,22.96
2017-09-09T08:48:17.057Z,22.96
2017-09-09T08:49:25.753Z,22.93
2017-09-09T08:50:35.088Z,22.94
2017-09-09T08:51:43.784Z,22.93
2017-09-09T08:52:52.482Z,22.93
2017-09-09T08:54:01.178Z,22.98
2017-09-09T08:55:10.833Z,23
2017-09-09T08:56:19.530Z,23
2017-09-09T08:57:28.227Z,22.98
2017-09-09T08:58:37.241Z,22.9
2017-09-09T08:59:46.264Z,22.98
2017-09-09T09:00:55.918Z,22.96
2017-09-09T09:02:04.934Z,22.88
2017-09-09T09:03:13.951Z,22.9
2017-09-09T09:04:22.648Z,22.93
2017-09-09T09:05:31.661Z,22.98
2017-09-09T09:06:40.681Z,23.03
2017-09-09T09:07:50.017Z,22.96
2017-09-09T09:08:58.713Z,23.05
2017-09-09T09:10:07.731Z,23.09
2017-09-09T09:11:16.756Z,23.08
2017-09-09T09:12:25.775Z,23.15
2017-09-09T09:13:35.111Z,23.21
2017-09-09T09:14:44.136Z,23.2
2017-09-09T09:15:53.791Z,23.2
2017-09-09T09:17:02.811Z,23.2
2017-09-09T09:18:12.149Z,23.23
2017-09-09T09:19:21.186Z,23.4
2017-09-09T09:20:30.215Z,23.28
2017-09-09T09:21:39.540Z,23.36
2017-09-09T09:22:48.238Z,23.37
2017-09-09T09:23:56.943Z,23.41
2017-09-09T09:25:05.642Z,23.48
2017-09-09T09:26:15.302Z,23.43
2017-09-09T09:27:24.648Z,23.58
2017-09-09T09:28:33.665Z,23.62
2017-09-09T09:29:43.001Z,23.71
2017-09-09T09:30:52.339Z,23.69
2017-09-09T09:32:01.357Z,23.71
2017-09-09T09:33:10.056Z,23.8
2017-09-09T09:34:19.073Z,23.95
2017-09-09T09:35:28.409Z,23.92
2017-09-09T09:36:37.427Z,24.02
2017-09-09T09:37:46.451Z,24.17
2017-09-09T09:38:55.789Z,24.32
2017-09-09T09:40:05.124Z,24.35
2017-09-09T09:41:14.140Z,24.48
2017-09-09T09:42:23.478Z,24.7
2017-09-09T09:43:32.820Z,25.33
2017-09-09T09:44:42.161Z,26
2017-09-09T09:45:51.177Z,26.78
2017-09-09T09:47:00.512Z,27.18
2017-09-09T09:48:09.850Z,27.82
2017-09-09T09:49:18.865Z,28.51
2017-09-09T09:50:27.881Z,29.14
2017-09-09T09:51:36.580Z,29.82
2017-09-09T09:52:45.919Z,30.31
2017-09-09T09:53:54.621Z,30.4
2017-09-09T09:55:04.278Z,30.34
2017-09-09T09:56:13.298Z,30.15
2017-09-09T09:57:21.998Z,30.13
2017-09-09T09:58:31.018Z,30.4
2017-09-09T09:59:40.039Z,30.16
2017-09-09T10:00:50.056Z,30.15
2017-09-09T10:01:59.718Z,30.24
2017-09-09T10:03:08.736Z,30.15
2017-09-09T10:04:18.084Z,30.35
2017-09-09T10:05:27.107Z,30.37
2017-09-09T10:06:36.129Z,29.98
2017-09-09T10:07:45.471Z,29.47
2017-09-09T10:08:55.130Z,28.98
2017-09-09T10:10:04.469Z,28.66
2017-09-09T10:11:13.489Z,28.15
2017-09-09T10:12:22.829Z,27.87
2017-09-09T10:13:31.850Z,27.59
2017-09-09T10:14:40.875Z,27.29
2017-09-09T10:15:49.577Z,27.03
2017-09-09T10:16:58.918Z,26.83
2017-09-09T10:18:07.621Z,26.55
2017-09-09T10:19:16.644Z,26.47
2017-09-09T10:20:25.343Z,26.31
2017-09-09T10:21:34.362Z,26.13
2017-09-09T10:22:43.699Z,25.95
2017-09-09T10:23:52.398Z,25.88
2017-09-09T10:25:01.100Z,25.72
2017-09-09T10:26:09.795Z,25.65
2017-09-09T10:27:18.813Z,25.54
2017-09-09T10:28:27.834Z,25.44
2017-09-09T10:29:37.492Z,25.35
2017-09-09T10:30:46.511Z,25.35
2017-09-09T10:31:55.856Z,25.17
2017-09-09T10:33:05.193Z,25.18
2017-09-09T10:34:15.168Z,25.13
2017-09-09T10:35:24.508Z,25.08
2017-09-09T10:36:33.531Z,25.08
2017-09-09T10:37:42.550Z,25.01
2017-09-09T10:38:51.249Z,25.04
2017-09-09T10:40:00.911Z,25.03
2017-09-09T10:41:09.609Z,25.08
2017-09-09T10:42:18.945Z,25.54
2017-09-09T10:43:27.963Z,25.91
2017-09-09T10:44:36.981Z,26.07
2017-09-09T10:45:46.001Z,26.34
2017-09-09T10:46:54.699Z,26.4
2017-09-09T10:48:03.400Z,26.51
2017-09-09T10:49:12.098Z,26.36
2017-09-09T10:50:21.436Z,26.29
2017-09-09T10:51:30.779Z,26.1
2017-09-09T10:52:40.446Z,25.99
2017-09-09T10:53:49.465Z,25.83
2017-09-09T10:54:58.484Z,25.78
2017-09-09T10:56:07.181Z,25.63
2017-09-09T10:57:16.198Z,25.75
2017-09-09T10:58:25.534Z,25.8
2017-09-09T10:59:34.874Z,26.28
2017-09-09T11:00:43.890Z,26.88
2017-09-09T11:01:53.230Z,27.44
2017-09-09T11:03:02.247Z,27.51
2017-09-09T11:04:11.262Z,27.54
2017-09-09T11:05:20.926Z,27.74
2017-09-09T11:06:30.266Z,28.01
2017-09-09T11:07:39.603Z,28.12
2017-09-09T11:08:48.302Z,28.1
2017-09-09T11:09:57.322Z,28.01
2017-09-09T11:11:06.340Z,27.74
2017-09-09T11:12:15.679Z,27.59
2017-09-09T11:13:25.023Z,27.45
2017-09-09T11:14:34.043Z,27.2
2017-09-09T11:15:43.062Z,27.05
2017-09-09T11:16:52.082Z,26.88
2017-09-09T11:18:01.101Z,26.66
2017-09-09T11:19:09.799Z,26.55
2017-09-09T11:20:19.460Z,26.37
2017-09-09T11:21:28.159Z,26.18
2017-09-09T11:22:37.495Z,26
2017-09-09T11:23:46.831Z,25.83
2017-09-09T11:24:55.530Z,25.73
2017-09-09T11:26:04.547Z,25.7
2017-09-09T11:27:13.886Z,25.6
2017-09-09T11:28:22.913Z,25.48
2017-09-09T11:29:31.928Z,25.41
2017-09-09T11:30:41.267Z,25.26
2017-09-09T11:31:50.924Z,25.21
2017-09-09T11:32:59.622Z,25.22
2017-09-09T11:34:08.641Z,25.06
2017-09-09T11:35:17.339Z,24.95
2017-09-09T11:36:26.036Z,24.92
2017-09-09T11:37:35.052Z,24.86
2017-09-09T11:38:44.073Z,24.8
2017-09-09T11:39:53.091Z,24.77
2017-09-09T11:41:02.109Z,24.65
2017-09-09T11:42:11.125Z,24.78
2017-09-09T11:43:20.144Z,25.21
2017-09-09T11:44:29.801Z,25.55
2017-09-09T11:45:38.817Z,25.58
2017-09-09T11:46:47.517Z,25.62
2017-09-09T11:47:57.174Z,25.53
2017-09-09T11:49:06.215Z,25.33
2017-09-09T11:50:15.208Z,25.31
2017-09-09T11:51:24.545Z,25.18
2017-09-09T11:52:33.239Z,25.07
2017-09-09T11:53:41.933Z,25.01
2017-09-09T11:54:50.629Z,24.95
2017-09-09T11:55:59.646Z,24.8
2017-09-09T11:57:08.662Z,24.74
2017-09-09T11:58:17.678Z,24.69
2017-09-09T11:59:27.330Z,24.66
2017-09-09T12:00:36.991Z,24.57
2017-09-09T12:01:46.005Z,24.58
2017-09-09T12:02:55.022Z,24.53
2017-09-09T12:04:04.045Z,24.51
2017-09-09T12:05:13.064Z,24.48
2017-09-09T12:06:22.084Z,24.43
2017-09-09T12:07:31.421Z,24.38
2017-09-09T12:08:40.437Z,24.38
2017-09-09T12:09:49.454Z,24.38
2017-09-09T12:10:58.503Z,24.39
2017-09-09T12:12:07.840Z,24.33
2017-09-09T12:13:16.855Z,24.39
2017-09-09T12:14:26.194Z,24.4
2017-09-09T12:15:35.533Z,24.53
2017-09-09T12:16:44.553Z,24.54
2017-09-09T12:17:53.567Z,24.68
2017-09-09T12:19:02.585Z,24.6
2017-09-09T12:20:11.603Z,24.66
2017-09-09T12:21:20.299Z,24.8
2017-09-09T12:22:29.316Z,24.84
2017-09-09T12:23:38.672Z,24.91
2017-09-09T12:24:47.689Z,24.85
2017-09-09T12:25:56.385Z,24.98
2017-09-09T12:27:05.399Z,25.03
2017-09-09T12:28:14.417Z,25.04
2017-09-09T12:29:23.754Z,25.13
2017-09-09T12:30:33.095Z,25.03
2017-09-09T12:31:42.112Z,25.07
2017-09-09T12:32:51.780Z,24.96
2017-09-09T12:34:00.797Z,24.92
2017-09-09T12:35:09.817Z,24.92
2017-09-09T12:36:19.162Z,24.92
2017-09-09T12:37:28.179Z,24.95
2017-09-09T12:38:37.197Z,24.93
2017-09-09T12:39:45.897Z,24.92
2017-09-09T12:40:55.560Z,24.89
2017-09-09T12:42:04.576Z,24.89
2017-09-09T12:43:13.592Z,24.89
2017-09-09T12:44:22.930Z,24.88
2017-09-09T12:45:31.627Z,24.8
2017-09-09T12:46:41.283Z,24.73
2017-09-09T12:47:50.621Z,24.77
2017-09-09T12:49:00.275Z,24.69
2017-09-09T12:50:09.933Z,24.77
2017-09-09T12:51:19.267Z,24.73
2017-09-09T12:52:28.601Z,24.7
2017-09-09T12:53:38.256Z,24.65
2017-09-09T12:54:47.594Z,24.73
2017-09-09T12:55:56.932Z,24.73
2017-09-09T12:57:05.948Z,24.76
2017-09-09T12:58:15.286Z,24.74
2017-09-09T12:59:23.984Z,24.74
2017-09-09T13:00:33.639Z,24.77
2017-09-09T13:01:42.660Z,24.58
2017-09-09T13:02:51.362Z,24.65
2017-09-09T13:04:00.702Z,24.55
2017-09-09T13:05:10.038Z,24.54
2017-09-09T13:06:18.735Z,24.48
2017-09-09T13:07:28.072Z,24.42
2017-09-09T13:08:37.410Z,24.39
2017-09-09T13:09:46.107Z,24.35
2017-09-09T13:10:55.125Z,24.3
2017-09-09T13:12:03.822Z,24.33
2017-09-09T13:13:13.162Z,24.33
2017-09-09T13:14:21.858Z,24.24
2017-09-09T13:15:30.873Z,24.3
2017-09-09T13:16:40.531Z,24.26
2017-09-09T13:17:49.544Z,24.3
2017-09-09T13:18:58.559Z,24.23
2017-09-09T13:20:08.260Z,24.16
2017-09-09T13:21:17.278Z,24.2
2017-09-09T13:22:25.975Z,24.18
2017-09-09T13:23:35.308Z,24.21
2017-09-09T13:24:44.327Z,24.16
2017-09-09T13:25:53.983Z,24.21
2017-09-09T13:27:03.001Z,24.2
2017-09-09T13:28:12.019Z,24.11
2017-09-09T13:29:21.033Z,24.14
2017-09-09T13:30:30.373Z,24.1
2017-09-09T13:31:39.708Z,24.08
2017-09-09T13:32:48.726Z,24.13
2017-09-09T13:33:57.424Z,24.13
2017-09-09T13:35:06.756Z,24.16
2017-09-09T13:36:15.772Z,24.14
2017-09-09T13:37:24.787Z,24.13
2017-09-09T13:38:34.128Z,24.05
2017-09-09T13:39:43.144Z,24.02
2017-09-09T13:40:52.477Z,24.02
2017-09-09T13:42:01.812Z,24.03
2017-09-09T13:43:10.832Z,23.96
2017-09-09T13:44:20.820Z,24.05
2017-09-09T13:45:29.835Z,23.95
2017-09-09T13:46:38.853Z,24.01
2017-09-09T13:47:48.190Z,23.93
2017-09-09T13:48:57.206Z,23.92
2017-09-09T13:50:07.185Z,23.96
2017-09-09T13:51:15.883Z,24.01
2017-09-09T13:52:25.228Z,23.96
2017-09-09T13:53:34.570Z,23.98
2017-09-09T13:54:43.909Z,23.92
2017-09-09T13:55:53.247Z,23.98
2017-09-09T13:57:01.945Z,23.98
2017-09-09T13:58:10.963Z,24.05
2017-09-09T13:59:19.659Z,24.08
2017-09-09T14:00:28.674Z,24.11
2017-09-09T14:01:37.375Z,24.08
2017-09-09T14:02:46.714Z,24.1
2017-09-09T14:03:56.367Z,24.18
2017-09-09T14:05:05.385Z,24.23
2017-09-09T14:06:14.408Z,24.18
2017-09-09T14:07:23.425Z,24.2
2017-09-09T14:08:32.760Z,24.24
2017-09-09T14:09:41.779Z,24.26
2017-09-09T14:10:50.791Z,24.26
2017-09-09T14:12:00.130Z,24.3
2017-09-09T14:13:09.147Z,24.3
2017-09-09T14:14:18.167Z,24.33
2017-09-09T14:15:27.823Z,24.3
2017-09-09T14:16:37.159Z,24.33
2017-09-09T14:17:46.181Z,24.29
2017-09-09T14:18:55.201Z,24.32
2017-09-09T14:20:04.546Z,24.33
2017-09-09T14:21:13.883Z,24.32
2017-09-09T14:22:22.579Z,24.35
2017-09-09T14:23:31.611Z,24.36
2017-09-09T14:24:41.267Z,24.39
2017-09-09T14:25:50.605Z,24.39
2017-09-09T14:26:59.940Z,24.35
2017-09-09T14:28:09.280Z,24.39
2017-09-09T14:29:18.618Z,24.39
2017-09-09T14:30:27.635Z,24.33
2017-09-09T14:31:37.293Z,24.38
2017-09-09T14:32:46.628Z,24.35
2017-09-09T14:33:55.322Z,24.48
2017-09-09T14:35:04.339Z,24.51
2017-09-09T14:36:13.289Z,24.47
2017-09-09T14:37:22.310Z,24.39
2017-09-09T14:38:31.327Z,24.39
2017-09-09T14:39:40.985Z,24.36
2017-09-09T14:40:49.682Z,24.42
2017-09-09T14:41:58.695Z,24.4
2017-09-09T14:43:07.395Z,24.42
2017-09-09T14:44:16.409Z,24.42
2017-09-09T14:45:25.106Z,24.42
2017-09-09T14:46:34.123Z,24.42
2017-09-09T14:47:42.820Z,24.42
2017-09-09T14:48:52.159Z,24.39
2017-09-09T14:50:01.495Z,24.48
2017-09-09T14:51:11.156Z,24.38
2017-09-09T14:52:19.853Z,24.51
2017-09-09T14:53:28.869Z,24.51
2017-09-09T14:54:38.525Z,24.55